Legend — WDF9316 — position and weather

sailwx.info

Track history (hours):
 
Tides and Currents Weather Stations Pressure Air Temp Water Temp Dewpoint Dewpoint Depression Visibility Wind Speed Wind Dir Waves Ship Positions

Legend

Owner: Crowley Maritime, Seattle, WA. More information available from US FCC via Universal Licensing System and Coast Guard Vessel Documentation Center.

Last reported at 2016-Dec-06 08:32 UTC. Time now 2016-Dec-08 08:02 UTC.
Position N 25°22' W 079°60'.

Length 212 m; draft 7.8 m.

Type: Towing. MMSI: 366709000.

Date/timePositionNaut miles runAvg speedWind from/ knotsBaromVisibWave heightAir tempDewpointWater temp
2016-Dec-06 08:32N 25°22' W 079°60'9 9.5
2016-Dec-06 07:33N 25°31' W 080°01'9 9.2
2016-Dec-06 06:33N 25°40' W 080°01'10 9.5
2016-Dec-06 05:33N 25°50' W 080°01'9 9.3
2016-Dec-06 04:33N 25°59' W 080°01'8 7.7
2016-Dec-06 03:33N 26°06' W 080°06'2 1.5
2016-Dec-06 02:30N 26°06' W 080°07'0 0.0
2016-Dec-06 01:30N 26°06' W 080°07'0 0.0
2016-Dec-06 00:30N 26°06' W 080°07'0 0.0
2016-Dec-05 23:33N 26°06' W 080°07'0 0.0
2016-Dec-05 22:33N 26°06' W 080°07'0 0.0
2016-Dec-05 21:33N 26°06' W 080°07'0 0.0
2016-Dec-05 20:33N 26°06' W 080°07'0 0.0
2016-Dec-05 19:33N 26°06' W 080°07'0 0.0
2016-Dec-05 18:33N 26°06' W 080°07'0 0.0
2016-Dec-05 17:24N 26°06' W 080°07'0 0.0
2016-Dec-05 16:24N 26°06' W 080°07'0 0.0
2016-Dec-05 15:27N 26°06' W 080°07'0 0.0
2016-Dec-05 14:27N 26°06' W 080°07'0 0.0
2016-Dec-05 13:27N 26°06' W 080°07'0 0.0
2016-Dec-05 12:30N 26°06' W 080°07'0 0.0
2016-Dec-05 11:30N 26°06' W 080°07'0 0.0
2016-Dec-05 10:30N 26°06' W 080°07'0 0.0
2016-Dec-05 09:33N 26°06' W 080°07'0 0.0
2016-Dec-05 08:33N 26°06' W 080°07'0 0.0
2016-Dec-05 07:33N 26°06' W 080°07'0 0.0
2016-Dec-05 06:33N 26°06' W 080°07'0 0.0
2016-Dec-05 05:33N 26°06' W 080°07'0 0.0
2016-Dec-05 04:33N 26°06' W 080°07'0 0.0
2016-Dec-05 03:33N 26°06' W 080°07'0 0.0
2016-Dec-05 02:24N 26°06' W 080°07'0 0.0
2016-Dec-05 01:28N 26°06' W 080°07'1 1.3
2016-Dec-05 00:33N 26°06' W 080°06'8 8.5
2016-Dec-04 23:33N 26°12' W 080°00'1 0.8
2016-Dec-04 22:33N 26°11' W 080°00'1010.4
2016-Dec-04 21:33N 26°01' W 079°60'1111.5
2016-Dec-04 20:33N 25°50' W 079°59'1211.7
2016-Dec-04 19:33N 25°38' W 079°58'  
2016-Dec-02 08:28N 29°55' W 089°56'9 9.6
2016-Dec-02 07:31N 29°55' W 090°06'9 8.9
2016-Dec-02 06:33N 29°58' W 090°15'2 0.1
2016-Nov-30 21:28N 29°58' W 090°17'0 0.0
2016-Nov-30 14:25N 29°58' W 090°17'0 0.0
2016-Nov-30 12:13N 29°58' W 090°17'0 0.0
2016-Nov-29 15:16N 29°58' W 090°17'0 0.0
2016-Nov-29 14:31N 29°58' W 090°17'0 0.0
2016-Nov-29 13:13N 29°58' W 090°17'0 0.0
2016-Nov-29 11:31N 29°58' W 090°17'0 0.0
2016-Nov-29 10:25N 29°58' W 090°17'0 0.0
2016-Nov-28 23:16N 29°58' W 090°17'0 0.0
2016-Nov-28 22:16N 29°58' W 090°17'0 0.0
2016-Nov-28 21:28N 29°58' W 090°17'0 0.0
2016-Nov-28 20:22N 29°58' W 090°17'0 0.0
2016-Nov-28 19:28N 29°58' W 090°17'0 0.0
2016-Nov-28 18:31N 29°58' W 090°17'0 0.0
2016-Nov-28 17:10N 29°58' W 090°17'0 0.0
2016-Nov-28 14:31N 29°58' W 090°17'0 0.0
2016-Nov-28 12:31N 29°58' W 090°17'0 0.0
2016-Nov-28 11:28N 29°58' W 090°17'0 0.0
2016-Nov-28 10:28N 29°58' W 090°17'0 0.0
2016-Nov-28 05:13N 29°58' W 090°17'0 0.0
2016-Nov-27 23:31N 29°58' W 090°17'0 0.0
2016-Nov-27 22:31N 29°58' W 090°17'0 0.0
2016-Nov-27 21:31N 29°58' W 090°17'0 0.0
2016-Nov-27 20:28N 29°58' W 090°17'0 0.0
2016-Nov-27 18:10N 29°58' W 090°17'0 0.0
2016-Nov-27 15:28N 29°58' W 090°17'0 0.0
2016-Nov-27 14:13N 29°58' W 090°17'0 0.0
2016-Nov-27 13:10N 29°58' W 090°17'0 0.0
2016-Nov-27 12:25N 29°58' W 090°17'0 0.0
2016-Nov-27 11:31N 29°58' W 090°17'0 0.0
2016-Nov-27 10:31N 29°58' W 090°17'0 0.0
2016-Nov-27 09:31N 29°58' W 090°17'0 0.0
2016-Nov-26 17:13N 29°58' W 090°17'  
Track history (hours):
 
Tides and Currents Weather Stations Pressure Air Temp Water Temp Dewpoint Dewpoint Depression Visibility Wind Speed Wind Dir Waves Ship Positions

Legend

Owner: Crowley Maritime, Seattle, WA. More information available from US FCC via Universal Licensing System and Coast Guard Vessel Documentation Center.

Last reported at 2016-Dec-06 08:32 UTC. Time now 2016-Dec-08 08:02 UTC.
Position N 25°22' W 079°60'.

Length 212 m; draft 7.8 m.

Type: Towing. MMSI: 366709000.

Date/timePositionNaut miles runAvg speedWind from/ knotsBaromVisibWave heightAir tempDewpointWater temp
2016-Dec-06 08:32N 25°22' W 079°60'9 9.5
2016-Dec-06 07:33N 25°31' W 080°01'9 9.2
2016-Dec-06 06:33N 25°40' W 080°01'10 9.5
2016-Dec-06 05:33N 25°50' W 080°01'9 9.3
2016-Dec-06 04:33N 25°59' W 080°01'8 7.7
2016-Dec-06 03:33N 26°06' W 080°06'2 1.5
2016-Dec-06 02:30N 26°06' W 080°07'0 0.0
2016-Dec-06 01:30N 26°06' W 080°07'0 0.0
2016-Dec-06 00:30N 26°06' W 080°07'0 0.0
2016-Dec-05 23:33N 26°06' W 080°07'0 0.0
2016-Dec-05 22:33N 26°06' W 080°07'0 0.0
2016-Dec-05 21:33N 26°06' W 080°07'0 0.0
2016-Dec-05 20:33N 26°06' W 080°07'0 0.0
2016-Dec-05 19:33N 26°06' W 080°07'0 0.0
2016-Dec-05 18:33N 26°06' W 080°07'0 0.0
2016-Dec-05 17:24N 26°06' W 080°07'0 0.0
2016-Dec-05 16:24N 26°06' W 080°07'0 0.0
2016-Dec-05 15:27N 26°06' W 080°07'0 0.0
2016-Dec-05 14:27N 26°06' W 080°07'0 0.0
2016-Dec-05 13:27N 26°06' W 080°07'0 0.0
2016-Dec-05 12:30N 26°06' W 080°07'0 0.0
2016-Dec-05 11:30N 26°06' W 080°07'0 0.0
2016-Dec-05 10:30N 26°06' W 080°07'0 0.0
2016-Dec-05 09:33N 26°06' W 080°07'0 0.0
2016-Dec-05 08:33N 26°06' W 080°07'0 0.0
2016-Dec-05 07:33N 26°06' W 080°07'0 0.0
2016-Dec-05 06:33N 26°06' W 080°07'0 0.0
2016-Dec-05 05:33N 26°06' W 080°07'0 0.0
2016-Dec-05 04:33N 26°06' W 080°07'0 0.0
2016-Dec-05 03:33N 26°06' W 080°07'0 0.0
2016-Dec-05 02:24N 26°06' W 080°07'0 0.0
2016-Dec-05 01:28N 26°06' W 080°07'1 1.3
2016-Dec-05 00:33N 26°06' W 080°06'8 8.5
2016-Dec-04 23:33N 26°12' W 080°00'1 0.8
2016-Dec-04 22:33N 26°11' W 080°00'1010.4
2016-Dec-04 21:33N 26°01' W 079°60'1111.5
2016-Dec-04 20:33N 25°50' W 079°59'1211.7
2016-Dec-04 19:33N 25°38' W 079°58'  
2016-Dec-02 08:28N 29°55' W 089°56'9 9.6
2016-Dec-02 07:31N 29°55' W 090°06'9 8.9
2016-Dec-02 06:33N 29°58' W 090°15'2 0.1
2016-Nov-30 21:28N 29°58' W 090°17'0 0.0
2016-Nov-30 14:25N 29°58' W 090°17'0 0.0
2016-Nov-30 12:13N 29°58' W 090°17'0 0.0
2016-Nov-29 15:16N 29°58' W 090°17'0 0.0
2016-Nov-29 14:31N 29°58' W 090°17'0 0.0
2016-Nov-29 13:13N 29°58' W 090°17'0 0.0
2016-Nov-29 11:31N 29°58' W 090°17'0 0.0
2016-Nov-29 10:25N 29°58' W 090°17'0 0.0
2016-Nov-28 23:16N 29°58' W 090°17'0 0.0
2016-Nov-28 22:16N 29°58' W 090°17'0 0.0
2016-Nov-28 21:28N 29°58' W 090°17'0 0.0
2016-Nov-28 20:22N 29°58' W 090°17'0 0.0
2016-Nov-28 19:28N 29°58' W 090°17'0 0.0
2016-Nov-28 18:31N 29°58' W 090°17'0 0.0
2016-Nov-28 17:10N 29°58' W 090°17'0 0.0
2016-Nov-28 14:31N 29°58' W 090°17'0 0.0
2016-Nov-28 12:31N 29°58' W 090°17'0 0.0
2016-Nov-28 11:28N 29°58' W 090°17'0 0.0
2016-Nov-28 10:28N 29°58' W 090°17'0 0.0
2016-Nov-28 05:13N 29°58' W 090°17'0 0.0
2016-Nov-27 23:31N 29°58' W 090°17'0 0.0
2016-Nov-27 22:31N 29°58' W 090°17'0 0.0
2016-Nov-27 21:31N 29°58' W 090°17'0 0.0
2016-Nov-27 20:28N 29°58' W 090°17'0 0.0
2016-Nov-27 18:10N 29°58' W 090°17'0 0.0
2016-Nov-27 15:28N 29°58' W 090°17'0 0.0
2016-Nov-27 14:13N 29°58' W 090°17'0 0.0
2016-Nov-27 13:10N 29°58' W 090°17'0 0.0
2016-Nov-27 12:25N 29°58' W 090°17'0 0.0
2016-Nov-27 11:31N 29°58' W 090°17'0 0.0
2016-Nov-27 10:31N 29°58' W 090°17'0 0.0
2016-Nov-27 09:31N 29°58' W 090°17'0 0.0
2016-Nov-26 17:13N 29°58' W 090°17'  

Dump ship's entire track history